sensor_id;sensor_type;location;lat;lon;timestamp;P1;durP1;ratioP1;P2;durP2;ratioP2
40967;SDS011;57377;45.130;6.038;2022-08-16T00:01:44;6.05;;;3.38;;
40967;SDS011;57377;45.130;6.038;2022-08-16T00:04:10;5.18;;;4.00;;
40967;SDS011;57377;45.130;6.038;2022-08-16T00:06:36;9.63;;;3.50;;
40967;SDS011;57377;45.130;6.038;2022-08-16T00:09:01;7.60;;;4.00;;
40967;SDS011;57377;45.130;6.038;2022-08-16T00:11:27;6.05;;;3.97;;
40967;SDS011;57377;45.130;6.038;2022-08-16T00:13:52;8.02;;;3.30;;
40967;SDS011;57377;45.130;6.038;2022-08-16T00:16:17;6.45;;;3.80;;
40967;SDS011;57377;45.130;6.038;2022-08-16T00:18:43;7.18;;;3.75;;
40967;SDS011;57377;45.130;6.038;2022-08-16T00:21:10;11.87;;;3.30;;
40967;SDS011;57377;45.130;6.038;2022-08-16T00:23:35;6.93;;;3.85;;
40967;SDS011;57377;45.130;6.038;2022-08-16T00:26:01;6.95;;;3.83;;
40967;SDS011;57377;45.130;6.038;2022-08-16T00:28:26;6.75;;;3.85;;
40967;SDS011;57377;45.130;6.038;2022-08-16T00:30:52;8.25;;;3.85;;
40967;SDS011;57377;45.130;6.038;2022-08-16T00:33:17;10.43;;;3.78;;
40967;SDS011;57377;45.130;6.038;2022-08-16T00:35:42;6.35;;;3.78;;
40967;SDS011;57377;45.130;6.038;2022-08-16T00:38:08;5.03;;;3.78;;
40967;SDS011;57377;45.130;6.038;2022-08-16T00:43:09;8.82;;;3.97;;
40967;SDS011;57377;45.130;6.038;2022-08-16T00:48:15;6.15;;;3.50;;
40967;SDS011;57377;45.130;6.038;2022-08-16T00:50:41;10.55;;;3.92;;
40967;SDS011;57377;45.130;6.038;2022-08-16T00:53:08;8.73;;;4.28;;
40967;SDS011;57377;45.130;6.038;2022-08-16T00:55:36;12.65;;;3.60;;
40967;SDS011;57377;45.130;6.038;2022-08-16T00:58:04;9.77;;;3.83;;
40967;SDS011;57377;45.130;6.038;2022-08-16T01:00:31;9.63;;;3.85;;
40967;SDS011;57377;45.130;6.038;2022-08-16T01:02:58;6.47;;;3.58;;
40967;SDS011;57377;45.130;6.038;2022-08-16T01:05:26;4.65;;;3.40;;
40967;SDS011;57377;45.130;6.038;2022-08-16T01:07:52;5.20;;;3.45;;
40967;SDS011;57377;45.130;6.038;2022-08-16T01:10:22;8.23;;;3.83;;
40967;SDS011;57377;45.130;6.038;2022-08-16T01:12:48;8.27;;;3.22;;
40967;SDS011;57377;45.130;6.038;2022-08-16T01:15:14;5.88;;;3.78;;
40967;SDS011;57377;45.130;6.038;2022-08-16T01:17:40;5.47;;;3.47;;
40967;SDS011;57377;45.130;6.038;2022-08-16T01:20:07;4.88;;;3.35;;
40967;SDS011;57377;45.130;6.038;2022-08-16T01:22:38;7.40;;;3.80;;
40967;SDS011;57377;45.130;6.038;2022-08-16T01:25:21;5.70;;;3.60;;
40967;SDS011;57377;45.130;6.038;2022-08-16T01:27:53;5.25;;;3.65;;
40967;SDS011;57377;45.130;6.038;2022-08-16T01:30:24;5.43;;;3.90;;
40967;SDS011;57377;45.130;6.038;2022-08-16T01:32:52;8.35;;;3.83;;
40967;SDS011;57377;45.130;6.038;2022-08-16T01:35:22;6.65;;;3.97;;
40967;SDS011;57377;45.130;6.038;2022-08-16T01:37:51;6.47;;;3.67;;
40967;SDS011;57377;45.130;6.038;2022-08-16T01:40:23;4.97;;;3.22;;
40967;SDS011;57377;45.130;6.038;2022-08-16T01:42:51;5.70;;;3.83;;
40967;SDS011;57377;45.130;6.038;2022-08-16T01:45:18;7.38;;;3.92;;
40967;SDS011;57377;45.130;6.038;2022-08-16T01:47:45;5.68;;;3.75;;
40967;SDS011;57377;45.130;6.038;2022-08-16T01:50:12;6.60;;;3.72;;
40967;SDS011;57377;45.130;6.038;2022-08-16T01:52:37;7.10;;;3.92;;
40967;SDS011;57377;45.130;6.038;2022-08-16T01:55:04;8.40;;;3.53;;
40967;SDS011;57377;45.130;6.038;2022-08-16T01:57:30;4.90;;;3.33;;
40967;SDS011;57377;45.130;6.038;2022-08-16T01:59:56;9.02;;;4.40;;
40967;SDS011;57377;45.130;6.038;2022-08-16T02:02:22;10.38;;;4.50;;
40967;SDS011;57377;45.130;6.038;2022-08-16T02:04:48;8.15;;;4.45;;
40967;SDS011;57377;45.130;6.038;2022-08-16T02:07:14;6.15;;;3.63;;
40967;SDS011;57377;45.130;6.038;2022-08-16T02:12:08;6.55;;;4.10;;
40967;SDS011;57377;45.130;6.038;2022-08-16T02:14:35;10.88;;;3.45;;
40967;SDS011;57377;45.130;6.038;2022-08-16T02:17:02;6.17;;;4.03;;
40967;SDS011;57377;45.130;6.038;2022-08-16T02:19:30;5.97;;;3.85;;
40967;SDS011;57377;45.130;6.038;2022-08-16T02:21:58;9.63;;;3.65;;
40967;SDS011;57377;45.130;6.038;2022-08-16T02:24:25;6.55;;;3.83;;
40967;SDS011;57377;45.130;6.038;2022-08-16T02:26:51;6.50;;;4.03;;
40967;SDS011;57377;45.130;6.038;2022-08-16T02:29:17;7.18;;;3.80;;
40967;SDS011;57377;45.130;6.038;2022-08-16T02:31:45;10.63;;;3.90;;
40967;SDS011;57377;45.130;6.038;2022-08-16T02:34:13;7.30;;;3.75;;
40967;SDS011;57377;45.130;6.038;2022-08-16T02:36:39;15.25;;;4.45;;
40967;SDS011;57377;45.130;6.038;2022-08-16T02:39:07;9.02;;;4.03;;
40967;SDS011;57377;45.130;6.038;2022-08-16T02:41:34;6.18;;;4.32;;
40967;SDS011;57377;45.130;6.038;2022-08-16T02:44:01;6.95;;;3.67;;
40967;SDS011;57377;45.130;6.038;2022-08-16T02:46:27;6.07;;;4.00;;
40967;SDS011;57377;45.130;6.038;2022-08-16T02:48:52;6.47;;;3.72;;
40967;SDS011;57377;45.130;6.038;2022-08-16T02:51:18;5.03;;;3.50;;
40967;SDS011;57377;45.130;6.038;2022-08-16T02:53:44;4.97;;;3.47;;
40967;SDS011;57377;45.130;6.038;2022-08-16T02:56:12;4.97;;;3.42;;
40967;SDS011;57377;45.130;6.038;2022-08-16T02:58:39;14.88;;;4.50;;
40967;SDS011;57377;45.130;6.038;2022-08-16T03:01:06;9.43;;;3.78;;
40967;SDS011;57377;45.130;6.038;2022-08-16T03:03:33;6.03;;;3.40;;
40967;SDS011;57377;45.130;6.038;2022-08-16T03:06:01;6.10;;;3.45;;
40967;SDS011;57377;45.130;6.038;2022-08-16T03:08:27;7.40;;;4.20;;
40967;SDS011;57377;45.130;6.038;2022-08-16T03:10:52;6.82;;;4.03;;
40967;SDS011;57377;45.130;6.038;2022-08-16T03:13:18;5.80;;;3.90;;
40967;SDS011;57377;45.130;6.038;2022-08-16T03:15:44;12.30;;;4.00;;
40967;SDS011;57377;45.130;6.038;2022-08-16T03:18:11;6.97;;;4.20;;
40967;SDS011;57377;45.130;6.038;2022-08-16T03:20:37;4.97;;;3.25;;
40967;SDS011;57377;45.130;6.038;2022-08-16T03:23:03;7.47;;;4.00;;
40967;SDS011;57377;45.130;6.038;2022-08-16T03:25:29;11.02;;;3.90;;
40967;SDS011;57377;45.130;6.038;2022-08-16T03:27:55;6.60;;;3.97;;
40967;SDS011;57377;45.130;6.038;2022-08-16T03:30:26;6.75;;;4.10;;
40967;SDS011;57377;45.130;6.038;2022-08-16T03:32:54;6.97;;;3.67;;
40967;SDS011;57377;45.130;6.038;2022-08-16T03:35:21;5.63;;;3.70;;
40967;SDS011;57377;45.130;6.038;2022-08-16T03:37:52;6.35;;;3.83;;
40967;SDS011;57377;45.130;6.038;2022-08-16T03:40:20;7.57;;;3.70;;
40967;SDS011;57377;45.130;6.038;2022-08-16T03:42:46;14.25;;;4.22;;
40967;SDS011;57377;45.130;6.038;2022-08-16T03:45:11;8.25;;;3.72;;
40967;SDS011;57377;45.130;6.038;2022-08-16T03:47:38;4.40;;;3.10;;
40967;SDS011;57377;45.130;6.038;2022-08-16T03:50:04;8.10;;;3.78;;
40967;SDS011;57377;45.130;6.038;2022-08-16T03:52:31;12.68;;;3.40;;
40967;SDS011;57377;45.130;6.038;2022-08-16T03:54:56;5.78;;;3.85;;
40967;SDS011;57377;45.130;6.038;2022-08-16T03:57:22;6.28;;;3.53;;
40967;SDS011;57377;45.130;6.038;2022-08-16T03:59:47;6.20;;;3.78;;
40967;SDS011;57377;45.130;6.038;2022-08-16T04:02:12;5.28;;;3.78;;
40967;SDS011;57377;45.130;6.038;2022-08-16T04:04:38;8.30;;;3.35;;
40967;SDS011;57377;45.130;6.038;2022-08-16T04:07:04;5.85;;;4.03;;
40967;SDS011;57377;45.130;6.038;2022-08-16T04:09:31;4.85;;;3.83;;
40967;SDS011;57377;45.130;6.038;2022-08-16T04:11:57;7.05;;;3.67;;
40967;SDS011;57377;45.130;6.038;2022-08-16T04:14:23;7.03;;;3.70;;
40967;SDS011;57377;45.130;6.038;2022-08-16T04:16:49;10.38;;;3.72;;
40967;SDS011;57377;45.130;6.038;2022-08-16T04:19:14;7.50;;;3.97;;
40967;SDS011;57377;45.130;6.038;2022-08-16T04:21:40;5.70;;;3.83;;
40967;SDS011;57377;45.130;6.038;2022-08-16T04:24:05;9.90;;;3.80;;
40967;SDS011;57377;45.130;6.038;2022-08-16T04:26:31;4.32;;;3.20;;
40967;SDS011;57377;45.130;6.038;2022-08-16T04:28:57;7.95;;;3.50;;
40967;SDS011;57377;45.130;6.038;2022-08-16T04:31:24;5.72;;;3.83;;
40967;SDS011;57377;45.130;6.038;2022-08-16T04:33:49;7.18;;;4.25;;
40967;SDS011;57377;45.130;6.038;2022-08-16T04:36:15;8.07;;;3.90;;
40967;SDS011;57377;45.130;6.038;2022-08-16T04:38:40;5.32;;;3.35;;
40967;SDS011;57377;45.130;6.038;2022-08-16T04:41:05;8.20;;;3.80;;
40967;SDS011;57377;45.130;6.038;2022-08-16T04:43:31;8.95;;;3.58;;
40967;SDS011;57377;45.130;6.038;2022-08-16T04:45:57;10.40;;;3.25;;
40967;SDS011;57377;45.130;6.038;2022-08-16T04:48:23;5.35;;;3.80;;
40967;SDS011;57377;45.130;6.038;2022-08-16T04:50:49;10.93;;;3.90;;
40967;SDS011;57377;45.130;6.038;2022-08-16T04:53:14;5.53;;;3.90;;
40967;SDS011;57377;45.130;6.038;2022-08-16T04:55:40;5.32;;;3.33;;
40967;SDS011;57377;45.130;6.038;2022-08-16T04:58:06;9.80;;;3.72;;
40967;SDS011;57377;45.130;6.038;2022-08-16T05:00:32;5.53;;;3.30;;
40967;SDS011;57377;45.130;6.038;2022-08-16T05:02:59;8.13;;;4.00;;
40967;SDS011;57377;45.130;6.038;2022-08-16T05:05:26;5.90;;;3.88;;
40967;SDS011;57377;45.130;6.038;2022-08-16T05:07:52;6.13;;;3.50;;
40967;SDS011;57377;45.130;6.038;2022-08-16T05:10:17;6.95;;;3.63;;
40967;SDS011;57377;45.130;6.038;2022-08-16T05:12:43;5.13;;;3.90;;
40967;SDS011;57377;45.130;6.038;2022-08-16T05:15:09;8.93;;;3.42;;
40967;SDS011;57377;45.130;6.038;2022-08-16T05:17:35;7.95;;;3.92;;
40967;SDS011;57377;45.130;6.038;2022-08-16T05:20:01;6.22;;;3.72;;
40967;SDS011;57377;45.130;6.038;2022-08-16T05:22:27;5.63;;;3.50;;
40967;SDS011;57377;45.130;6.038;2022-08-16T05:24:52;11.38;;;3.47;;
40967;SDS011;57377;45.130;6.038;2022-08-16T05:27:18;7.75;;;3.63;;
40967;SDS011;57377;45.130;6.038;2022-08-16T05:29:43;5.80;;;3.90;;
40967;SDS011;57377;45.130;6.038;2022-08-16T05:32:09;6.82;;;3.58;;
40967;SDS011;57377;45.130;6.038;2022-08-16T05:34:34;7.50;;;3.60;;
40967;SDS011;57377;45.130;6.038;2022-08-16T05:37:00;5.05;;;3.08;;
40967;SDS011;57377;45.130;6.038;2022-08-16T05:39:25;8.07;;;3.70;;
40967;SDS011;57377;45.130;6.038;2022-08-16T05:41:52;5.10;;;3.53;;
40967;SDS011;57377;45.130;6.038;2022-08-16T05:44:19;7.83;;;3.97;;
40967;SDS011;57377;45.130;6.038;2022-08-16T05:46:46;12.48;;;4.28;;
40967;SDS011;57377;45.130;6.038;2022-08-16T05:49:12;6.70;;;3.63;;
40967;SDS011;57377;45.130;6.038;2022-08-16T05:51:40;7.18;;;3.67;;
40967;SDS011;57377;45.130;6.038;2022-08-16T05:54:07;7.70;;;4.53;;
40967;SDS011;57377;45.130;6.038;2022-08-16T05:56:34;8.27;;;4.28;;
40967;SDS011;57377;45.130;6.038;2022-08-16T05:58:59;5.68;;;3.92;;
40967;SDS011;57377;45.130;6.038;2022-08-16T06:01:25;8.10;;;3.83;;
40967;SDS011;57377;45.130;6.038;2022-08-16T06:03:50;5.60;;;3.88;;
40967;SDS011;57377;45.130;6.038;2022-08-16T06:06:16;5.03;;;3.47;;
40967;SDS011;57377;45.130;6.038;2022-08-16T06:08:41;4.85;;;3.33;;
40967;SDS011;57377;45.130;6.038;2022-08-16T06:11:07;4.75;;;3.42;;
40967;SDS011;57377;45.130;6.038;2022-08-16T06:13:33;4.68;;;3.28;;
40967;SDS011;57377;45.130;6.038;2022-08-16T06:18:26;6.35;;;3.83;;
40967;SDS011;57377;45.130;6.038;2022-08-16T06:20:51;5.00;;;3.58;;
40967;SDS011;57377;45.130;6.038;2022-08-16T06:23:17;7.40;;;4.10;;
40967;SDS011;57377;45.130;6.038;2022-08-16T06:25:42;5.40;;;3.42;;
40967;SDS011;57377;45.130;6.038;2022-08-16T06:28:09;11.57;;;3.78;;
40967;SDS011;57377;45.130;6.038;2022-08-16T06:30:38;6.40;;;3.70;;
40967;SDS011;57377;45.130;6.038;2022-08-16T06:33:04;7.55;;;3.40;;
40967;SDS011;57377;45.130;6.038;2022-08-16T06:35:30;4.68;;;3.42;;
40967;SDS011;57377;45.130;6.038;2022-08-16T06:37:55;6.20;;;3.70;;
40967;SDS011;57377;45.130;6.038;2022-08-16T06:40:21;5.93;;;3.90;;
40967;SDS011;57377;45.130;6.038;2022-08-16T06:42:48;7.45;;;3.85;;
40967;SDS011;57377;45.130;6.038;2022-08-16T06:45:16;10.18;;;3.47;;
40967;SDS011;57377;45.130;6.038;2022-08-16T06:47:42;5.25;;;3.22;;
40967;SDS011;57377;45.130;6.038;2022-08-16T06:50:08;5.47;;;2.92;;
40967;SDS011;57377;45.130;6.038;2022-08-16T06:52:34;7.70;;;3.22;;
40967;SDS011;57377;45.130;6.038;2022-08-16T06:55:04;4.85;;;3.15;;
40967;SDS011;57377;45.130;6.038;2022-08-16T06:57:31;3.75;;;2.70;;
40967;SDS011;57377;45.130;6.038;2022-08-16T07:00:00;6.45;;;3.25;;
40967;SDS011;57377;45.130;6.038;2022-08-16T07:02:25;4.82;;;2.72;;
40967;SDS011;57377;45.130;6.038;2022-08-16T07:04:51;3.75;;;2.40;;
40967;SDS011;57377;45.130;6.038;2022-08-16T07:07:17;5.93;;;3.13;;
40967;SDS011;57377;45.130;6.038;2022-08-16T07:09:45;3.25;;;2.45;;
40967;SDS011;57377;45.130;6.038;2022-08-16T07:12:12;9.10;;;3.13;;
40967;SDS011;57377;45.130;6.038;2022-08-16T07:14:38;3.58;;;2.85;;
40967;SDS011;57377;45.130;6.038;2022-08-16T07:17:04;4.63;;;3.30;;
40967;SDS011;57377;45.130;6.038;2022-08-16T07:19:33;6.50;;;2.88;;
40967;SDS011;57377;45.130;6.038;2022-08-16T07:21:58;5.07;;;3.13;;
40967;SDS011;57377;45.130;6.038;2022-08-16T07:24:26;5.63;;;2.72;;
40967;SDS011;57377;45.130;6.038;2022-08-16T07:26:53;4.38;;;2.65;;
40967;SDS011;57377;45.130;6.038;2022-08-16T07:29:19;4.80;;;2.58;;
40967;SDS011;57377;45.130;6.038;2022-08-16T07:31:44;6.00;;;2.70;;
40967;SDS011;57377;45.130;6.038;2022-08-16T07:34:10;6.55;;;2.35;;
40967;SDS011;57377;45.130;6.038;2022-08-16T07:36:35;4.55;;;2.55;;
40967;SDS011;57377;45.130;6.038;2022-08-16T07:39:01;8.07;;;2.87;;
40967;SDS011;57377;45.130;6.038;2022-08-16T07:41:26;2.63;;;2.40;;
40967;SDS011;57377;45.130;6.038;2022-08-16T07:43:55;3.92;;;2.55;;
40967;SDS011;57377;45.130;6.038;2022-08-16T07:46:20;3.92;;;2.90;;
40967;SDS011;57377;45.130;6.038;2022-08-16T07:48:46;5.53;;;2.65;;
40967;SDS011;57377;45.130;6.038;2022-08-16T07:51:12;7.85;;;2.85;;
40967;SDS011;57377;45.130;6.038;2022-08-16T07:53:37;3.42;;;2.83;;
40967;SDS011;57377;45.130;6.038;2022-08-16T07:56:03;3.75;;;2.97;;
40967;SDS011;57377;45.130;6.038;2022-08-16T07:58:29;4.22;;;3.33;;
40967;SDS011;57377;45.130;6.038;2022-08-16T08:00:55;3.67;;;2.92;;
40967;SDS011;57377;45.130;6.038;2022-08-16T08:03:22;3.90;;;2.80;;
40967;SDS011;57377;45.130;6.038;2022-08-16T08:05:47;4.53;;;2.70;;
40967;SDS011;57377;45.130;6.038;2022-08-16T08:08:13;15.80;;;3.45;;
40967;SDS011;57377;45.130;6.038;2022-08-16T08:10:38;4.13;;;2.65;;
40967;SDS011;57377;45.130;6.038;2022-08-16T08:13:03;5.78;;;3.17;;
40967;SDS011;57377;45.130;6.038;2022-08-16T08:15:29;5.82;;;3.17;;
40967;SDS011;57377;45.130;6.038;2022-08-16T08:17:55;7.32;;;2.95;;
40967;SDS011;57377;45.130;6.038;2022-08-16T08:20:21;8.30;;;3.30;;
40967;SDS011;57377;45.130;6.038;2022-08-16T08:22:51;3.42;;;2.88;;
40967;SDS011;57377;45.130;6.038;2022-08-16T08:25:17;5.55;;;3.22;;
40967;SDS011;57377;45.130;6.038;2022-08-16T08:27:44;3.95;;;2.92;;
40967;SDS011;57377;45.130;6.038;2022-08-16T08:30:09;4.97;;;3.53;;
40967;SDS011;57377;45.130;6.038;2022-08-16T08:32:36;4.75;;;3.20;;
40967;SDS011;57377;45.130;6.038;2022-08-16T08:35:02;5.35;;;3.40;;
40967;SDS011;57377;45.130;6.038;2022-08-16T08:37:28;6.45;;;3.50;;
40967;SDS011;57377;45.130;6.038;2022-08-16T08:39:54;4.70;;;2.88;;
40967;SDS011;57377;45.130;6.038;2022-08-16T08:42:19;3.95;;;2.78;;
40967;SDS011;57377;45.130;6.038;2022-08-16T08:44:45;5.03;;;2.97;;
40967;SDS011;57377;45.130;6.038;2022-08-16T08:47:10;4.45;;;2.78;;
40967;SDS011;57377;45.130;6.038;2022-08-16T08:49:36;3.88;;;2.88;;
40967;SDS011;57377;45.130;6.038;2022-08-16T08:52:03;5.35;;;2.55;;
40967;SDS011;57377;45.130;6.038;2022-08-16T08:54:29;4.25;;;2.88;;
40967;SDS011;57377;45.130;6.038;2022-08-16T08:56:55;7.32;;;2.97;;
40967;SDS011;57377;45.130;6.038;2022-08-16T08:59:21;6.25;;;3.13;;
40967;SDS011;57377;45.130;6.038;2022-08-16T09:01:47;4.28;;;3.10;;
40967;SDS011;57377;45.130;6.038;2022-08-16T09:04:12;3.50;;;2.42;;
40967;SDS011;57377;45.130;6.038;2022-08-16T09:06:38;3.38;;;2.83;;
40967;SDS011;57377;45.130;6.038;2022-08-16T09:09:04;3.55;;;2.88;;
40967;SDS011;57377;45.130;6.038;2022-08-16T09:11:30;4.83;;;3.13;;
40967;SDS011;57377;45.130;6.038;2022-08-16T09:13:58;5.65;;;2.72;;
40967;SDS011;57377;45.130;6.038;2022-08-16T09:16:23;5.45;;;3.50;;
40967;SDS011;57377;45.130;6.038;2022-08-16T09:18:49;4.88;;;2.60;;
40967;SDS011;57377;45.130;6.038;2022-08-16T09:21:15;5.47;;;3.03;;
40967;SDS011;57377;45.130;6.038;2022-08-16T09:23:41;2.88;;;2.33;;
40967;SDS011;57377;45.130;6.038;2022-08-16T09:26:07;4.10;;;2.70;;
40967;SDS011;57377;45.130;6.038;2022-08-16T09:28:40;3.88;;;2.50;;
40967;SDS011;57377;45.130;6.038;2022-08-16T09:31:07;5.45;;;2.70;;
40967;SDS011;57377;45.130;6.038;2022-08-16T09:33:33;3.47;;;2.40;;
40967;SDS011;57377;45.130;6.038;2022-08-16T09:35:59;6.88;;;3.47;;
40967;SDS011;57377;45.130;6.038;2022-08-16T09:38:25;5.28;;;2.78;;
40967;SDS011;57377;45.130;6.038;2022-08-16T09:40:50;4.13;;;2.60;;
40967;SDS011;57377;45.130;6.038;2022-08-16T09:43:17;3.33;;;2.53;;
40967;SDS011;57377;45.130;6.038;2022-08-16T09:45:44;6.72;;;3.00;;
40967;SDS011;57377;45.130;6.038;2022-08-16T09:48:10;4.32;;;2.83;;
40967;SDS011;57377;45.130;6.038;2022-08-16T09:50:37;4.32;;;3.30;;
40967;SDS011;57377;45.130;6.038;2022-08-16T09:53:04;5.15;;;2.72;;
40967;SDS011;57377;45.130;6.038;2022-08-16T09:55:33;5.40;;;2.60;;
40967;SDS011;57377;45.130;6.038;2022-08-16T09:57:58;5.13;;;3.13;;
40967;SDS011;57377;45.130;6.038;2022-08-16T10:00:23;3.50;;;3.08;;
40967;SDS011;57377;45.130;6.038;2022-08-16T10:02:50;3.63;;;2.70;;
40967;SDS011;57377;45.130;6.038;2022-08-16T10:05:17;3.60;;;2.53;;
40967;SDS011;57377;45.130;6.038;2022-08-16T10:07:43;3.33;;;2.22;;
40967;SDS011;57377;45.130;6.038;2022-08-16T10:10:12;3.35;;;2.53;;
40967;SDS011;57377;45.130;6.038;2022-08-16T10:12:37;3.60;;;2.33;;
40967;SDS011;57377;45.130;6.038;2022-08-16T10:15:21;5.75;;;2.58;;
40967;SDS011;57377;45.130;6.038;2022-08-16T10:17:49;4.03;;;2.70;;
40967;SDS011;57377;45.130;6.038;2022-08-16T10:20:17;7.10;;;2.67;;
40967;SDS011;57377;45.130;6.038;2022-08-16T10:22:42;5.07;;;2.85;;
40967;SDS011;57377;45.130;6.038;2022-08-16T10:25:08;5.53;;;2.28;;
40967;SDS011;57377;45.130;6.038;2022-08-16T10:27:33;3.70;;;2.20;;
40967;SDS011;57377;45.130;6.038;2022-08-16T10:30:00;3.47;;;2.08;;
40967;SDS011;57377;45.130;6.038;2022-08-16T10:32:26;3.90;;;2.42;;
40967;SDS011;57377;45.130;6.038;2022-08-16T10:34:51;3.28;;;1.90;;
40967;SDS011;57377;45.130;6.038;2022-08-16T10:37:17;3.95;;;2.40;;
40967;SDS011;57377;45.130;6.038;2022-08-16T10:39:42;4.78;;;2.58;;
40967;SDS011;57377;45.130;6.038;2022-08-16T10:42:08;5.22;;;2.20;;
40967;SDS011;57377;45.130;6.038;2022-08-16T10:44:35;2.65;;;2.30;;
40967;SDS011;57377;45.130;6.038;2022-08-16T10:47:00;3.58;;;2.10;;
40967;SDS011;57377;45.130;6.038;2022-08-16T10:49:25;5.05;;;2.47;;
40967;SDS011;57377;45.130;6.038;2022-08-16T10:51:51;4.25;;;1.73;;
40967;SDS011;57377;45.130;6.038;2022-08-16T10:54:20;3.83;;;2.10;;
40967;SDS011;57377;45.130;6.038;2022-08-16T10:56:46;2.97;;;1.98;;
40967;SDS011;57377;45.130;6.038;2022-08-16T10:59:13;3.87;;;2.27;;
40967;SDS011;57377;45.130;6.038;2022-08-16T11:01:38;3.35;;;2.00;;
40967;SDS011;57377;45.130;6.038;2022-08-16T11:04:04;2.67;;;2.05;;
40967;SDS011;57377;45.130;6.038;2022-08-16T11:06:31;3.13;;;2.30;;
40967;SDS011;57377;45.130;6.038;2022-08-16T11:08:56;4.13;;;2.67;;
40967;SDS011;57377;45.130;6.038;2022-08-16T11:11:22;3.85;;;2.47;;
40967;SDS011;57377;45.130;6.038;2022-08-16T11:13:48;9.15;;;2.13;;
40967;SDS011;57377;45.130;6.038;2022-08-16T11:16:16;3.67;;;2.05;;
40967;SDS011;57377;45.130;6.038;2022-08-16T11:18:42;4.78;;;2.63;;
40967;SDS011;57377;45.130;6.038;2022-08-16T11:21:08;3.28;;;2.45;;
40967;SDS011;57377;45.130;6.038;2022-08-16T11:23:34;9.23;;;2.78;;
40967;SDS011;57377;45.130;6.038;2022-08-16T11:26:00;3.28;;;2.25;;
40967;SDS011;57377;45.130;6.038;2022-08-16T11:28:26;4.70;;;2.45;;
40967;SDS011;57377;45.130;6.038;2022-08-16T11:30:52;6.55;;;2.10;;
40967;SDS011;57377;45.130;6.038;2022-08-16T11:33:17;2.28;;;2.08;;
40967;SDS011;57377;45.130;6.038;2022-08-16T11:35:43;3.35;;;2.08;;
40967;SDS011;57377;45.130;6.038;2022-08-16T11:38:15;4.88;;;2.67;;
40967;SDS011;57377;45.130;6.038;2022-08-16T11:40:44;4.75;;;2.70;;
40967;SDS011;57377;45.130;6.038;2022-08-16T11:43:16;3.80;;;2.00;;
40967;SDS011;57377;45.130;6.038;2022-08-16T11:45:44;4.63;;;2.38;;
40967;SDS011;57377;45.130;6.038;2022-08-16T11:48:11;3.97;;;2.42;;
40967;SDS011;57377;45.130;6.038;2022-08-16T11:50:38;3.83;;;2.92;;
40967;SDS011;57377;45.130;6.038;2022-08-16T11:53:05;2.28;;;1.90;;
40967;SDS011;57377;45.130;6.038;2022-08-16T11:55:31;3.55;;;2.25;;
40967;SDS011;57377;45.130;6.038;2022-08-16T11:57:57;3.88;;;2.47;;
40967;SDS011;57377;45.130;6.038;2022-08-16T12:00:24;3.15;;;2.17;;
40967;SDS011;57377;45.130;6.038;2022-08-16T12:02:49;3.90;;;2.50;;
40967;SDS011;57377;45.130;6.038;2022-08-16T12:05:15;3.50;;;2.35;;
40967;SDS011;57377;45.130;6.038;2022-08-16T12:07:41;4.55;;;2.50;;
40967;SDS011;57377;45.130;6.038;2022-08-16T12:10:07;5.25;;;2.42;;
40967;SDS011;57377;45.130;6.038;2022-08-16T12:12:35;4.28;;;2.50;;
40967;SDS011;57377;45.130;6.038;2022-08-16T12:15:02;5.25;;;2.80;;
40967;SDS011;57377;45.130;6.038;2022-08-16T12:19:54;4.50;;;2.33;;
40967;SDS011;57377;45.130;6.038;2022-08-16T12:22:20;3.70;;;2.53;;
40967;SDS011;57377;45.130;6.038;2022-08-16T12:24:46;6.55;;;2.20;;
40967;SDS011;57377;45.130;6.038;2022-08-16T12:27:12;3.80;;;2.63;;
40967;SDS011;57377;45.130;6.038;2022-08-16T12:29:38;5.85;;;2.28;;
40967;SDS011;57377;45.130;6.038;2022-08-16T12:32:03;4.13;;;2.78;;
40967;SDS011;57377;45.130;6.038;2022-08-16T12:34:29;4.50;;;2.55;;
40967;SDS011;57377;45.130;6.038;2022-08-16T12:36:55;2.72;;;2.30;;
40967;SDS011;57377;45.130;6.038;2022-08-16T12:39:20;3.70;;;2.38;;
40967;SDS011;57377;45.130;6.038;2022-08-16T12:41:45;4.00;;;2.22;;
40967;SDS011;57377;45.130;6.038;2022-08-16T12:44:12;3.45;;;2.47;;
40967;SDS011;57377;45.130;6.038;2022-08-16T12:46:38;5.03;;;2.50;;
40967;SDS011;57377;45.130;6.038;2022-08-16T12:49:04;3.10;;;2.07;;
40967;SDS011;57377;45.130;6.038;2022-08-16T12:51:37;2.95;;;2.25;;
40967;SDS011;57377;45.130;6.038;2022-08-16T12:54:05;3.63;;;2.35;;
40967;SDS011;57377;45.130;6.038;2022-08-16T12:56:34;3.75;;;2.25;;
40967;SDS011;57377;45.130;6.038;2022-08-16T12:59:04;4.05;;;2.40;;
40967;SDS011;57377;45.130;6.038;2022-08-16T13:01:33;3.17;;;2.40;;
40967;SDS011;57377;45.130;6.038;2022-08-16T13:04:00;4.35;;;2.10;;
40967;SDS011;57377;45.130;6.038;2022-08-16T13:06:28;3.55;;;2.50;;
40967;SDS011;57377;45.130;6.038;2022-08-16T13:08:53;3.60;;;2.28;;
40967;SDS011;57377;45.130;6.038;2022-08-16T13:11:22;4.53;;;2.53;;
40967;SDS011;57377;45.130;6.038;2022-08-16T13:13:53;3.05;;;2.05;;
40967;SDS011;57377;45.130;6.038;2022-08-16T13:16:19;5.65;;;2.58;;
40967;SDS011;57377;45.130;6.038;2022-08-16T13:18:44;3.58;;;2.00;;
40967;SDS011;57377;45.130;6.038;2022-08-16T13:21:10;8.30;;;2.63;;
40967;SDS011;57377;45.130;6.038;2022-08-16T13:23:36;5.15;;;2.40;;
40967;SDS011;57377;45.130;6.038;2022-08-16T13:26:02;4.45;;;2.38;;
40967;SDS011;57377;45.130;6.038;2022-08-16T13:28:29;3.25;;;2.05;;
40967;SDS011;57377;45.130;6.038;2022-08-16T13:30:54;7.00;;;2.78;;
40967;SDS011;57377;45.130;6.038;2022-08-16T13:33:22;3.42;;;2.40;;
40967;SDS011;57377;45.130;6.038;2022-08-16T13:35:51;3.55;;;2.50;;
40967;SDS011;57377;45.130;6.038;2022-08-16T13:38:20;4.05;;;2.50;;
40967;SDS011;57377;45.130;6.038;2022-08-16T13:40:45;3.53;;;2.40;;
40967;SDS011;57377;45.130;6.038;2022-08-16T13:45:38;9.43;;;3.03;;
40967;SDS011;57377;45.130;6.038;2022-08-16T13:48:03;3.45;;;2.33;;
40967;SDS011;57377;45.130;6.038;2022-08-16T13:50:30;7.25;;;2.83;;
40967;SDS011;57377;45.130;6.038;2022-08-16T13:52:56;5.82;;;3.17;;
40967;SDS011;57377;45.130;6.038;2022-08-16T13:55:22;5.13;;;2.55;;
40967;SDS011;57377;45.130;6.038;2022-08-16T13:57:48;4.20;;;2.20;;
40967;SDS011;57377;45.130;6.038;2022-08-16T14:00:13;6.05;;;2.50;;
40967;SDS011;57377;45.130;6.038;2022-08-16T14:02:40;5.97;;;3.00;;
40967;SDS011;57377;45.130;6.038;2022-08-16T14:05:06;4.55;;;2.50;;
40967;SDS011;57377;45.130;6.038;2022-08-16T14:07:32;9.63;;;3.08;;
40967;SDS011;57377;45.130;6.038;2022-08-16T14:09:58;7.00;;;2.67;;
40967;SDS011;57377;45.130;6.038;2022-08-16T14:12:27;4.55;;;2.13;;
40967;SDS011;57377;45.130;6.038;2022-08-16T14:14:54;4.03;;;2.40;;
40967;SDS011;57377;45.130;6.038;2022-08-16T14:17:20;6.38;;;2.90;;
40967;SDS011;57377;45.130;6.038;2022-08-16T14:19:47;6.28;;;3.40;;
40967;SDS011;57377;45.130;6.038;2022-08-16T14:24:44;3.38;;;2.20;;
40967;SDS011;57377;45.130;6.038;2022-08-16T14:27:12;4.65;;;2.70;;
40967;SDS011;57377;45.130;6.038;2022-08-16T14:29:37;7.78;;;2.47;;
40967;SDS011;57377;45.130;6.038;2022-08-16T14:32:04;4.50;;;2.65;;
40967;SDS011;57377;45.130;6.038;2022-08-16T14:36:55;3.30;;;2.22;;
40967;SDS011;57377;45.130;6.038;2022-08-16T14:39:21;3.78;;;2.67;;
40967;SDS011;57377;45.130;6.038;2022-08-16T14:41:46;5.65;;;3.47;;
40967;SDS011;57377;45.130;6.038;2022-08-16T14:44:12;6.70;;;2.20;;
40967;SDS011;57377;45.130;6.038;2022-08-16T14:46:37;3.97;;;2.30;;
40967;SDS011;57377;45.130;6.038;2022-08-16T14:49:03;4.28;;;2.67;;
40967;SDS011;57377;45.130;6.038;2022-08-16T14:51:28;4.82;;;2.40;;
40967;SDS011;57377;45.130;6.038;2022-08-16T14:53:53;3.20;;;2.60;;
40967;SDS011;57377;45.130;6.038;2022-08-16T14:56:20;4.72;;;2.75;;
40967;SDS011;57377;45.130;6.038;2022-08-16T14:58:46;4.32;;;2.70;;
40967;SDS011;57377;45.130;6.038;2022-08-16T15:01:11;6.20;;;3.35;;
40967;SDS011;57377;45.130;6.038;2022-08-16T15:03:37;8.82;;;2.55;;